Terminal Aerodrome Forecast
Issued by NWS

Home | Current Version | Previous Version | Text Only | Print | Product List | Glossary On
Versions: 1 2 3 4 5 6 7 8 9 10 11 12 13
000
FTUS45 KREV 260500
TAFTVL
TAF
KTVL 260530Z 2606/2706 15008KT P6SM FEW030 SCT050
     FM260800 19006KT P6SM SCT050
     FM261600 15005KT P6SM FEW050 SCT180
     FM261900 04006KT P6SM SCT180
     FM270100 VRB04KT P6SM SKC=

USA.gov is the U.S. government's official web portal to all federal, state and local government web resources and services.